Time;durP1;ratioP1;P1;durP2;ratioP2;P2;SDS_P1;SDS_P2;PMS_P1;PMS_P2;Temp;Humidity;BMP_temperature;BMP_pressure;BME280_temperature;BME280_humidity;BME280_pressure;Samples;Min_cycle;Max_cycle;Signal;HPM_P1;HPM_P2
2023/06/22 00:00:51;;;;;;;10.37;8.70;;;26.60;99.90;;;;;;5087426;28;21132;-79
2023/06/22 00:03:22;;;;;;;12.10;8.47;;;26.50;99.90;;;;;;5086926;28;20829;-79
2023/06/22 00:05:48;;;;;;;14.30;8.60;;;26.50;99.90;;;;;;5069388;28;20511;-79
2023/06/22 00:08:15;;;;;;;10.50;8.90;;;26.40;99.90;;;;;;5086490;28;20500;-79
2023/06/22 00:10:41;;;;;;;9.50;8.37;;;26.40;99.90;;;;;;5087681;28;20424;-79
2023/06/22 00:13:08;;;;;;;9.93;8.57;;;26.40;99.90;;;;;;5068808;28;20425;-79
2023/06/22 00:15:35;;;;;;;9.77;7.80;;;26.40;99.90;;;;;;5087642;28;20636;-79
2023/06/22 00:18:02;;;;;;;9.13;7.83;;;26.30;99.90;;;;;;5087111;28;20878;-79
2023/06/22 00:20:28;;;;;;;8.03;6.60;;;26.20;99.90;;;;;;5087678;28;20527;-80
2023/06/22 00:22:59;;;;;;;6.87;6.17;;;26.20;99.90;;;;;;5069000;28;20777;-80
2023/06/22 00:25:25;;;;;;;5.57;4.90;;;26.10;99.90;;;;;;5087158;28;20425;-80
2023/06/22 00:27:51;;;;;;;6.50;5.80;;;26.00;99.90;;;;;;5086908;28;20948;-79
2023/06/22 00:30:18;;;;;;;5.80;5.17;;;26.00;99.90;;;;;;5068886;28;20452;-79
2023/06/22 00:32:45;;;;;;;6.40;5.80;;;25.90;99.90;;;;;;5069017;28;20185;-79
2023/06/22 00:35:14;;;;;;;7.23;5.43;;;25.90;99.90;;;;;;5088326;28;20444;-79
2023/06/22 00:37:43;;;;;;;5.80;4.93;;;25.80;99.90;;;;;;5090852;28;20409;-79
2023/06/22 00:40:11;;;;;;;9.77;5.60;;;25.70;99.90;;;;;;5091021;28;20593;-79
2023/06/22 00:42:38;;;;;;;4.73;4.30;;;25.70;99.90;;;;;;5072218;28;20421;-79
2023/06/22 00:45:05;;;;;;;6.20;4.40;;;25.70;99.90;;;;;;5090900;28;20459;-79
2023/06/22 00:47:31;;;;;;;6.87;5.07;;;25.70;99.90;;;;;;5090604;28;20413;-80
2023/06/22 00:49:58;;;;;;;6.57;5.30;;;25.60;99.90;;;;;;5072831;28;20727;-79
2023/06/22 00:52:28;;;;;;;6.00;5.10;;;25.60;99.90;;;;;;5090420;28;20745;-79
2023/06/22 00:54:56;;;;;;;5.03;4.20;;;25.60;99.90;;;;;;5091096;28;20448;-79
2023/06/22 00:57:25;;;;;;;6.77;4.50;;;25.50;99.90;;;;;;5090359;28;20405;-80
2023/06/22 00:59:51;;;;;;;6.83;5.73;;;25.50;99.90;;;;;;5091064;28;20807;-79
2023/06/22 01:02:17;;;;;;;6.90;4.53;;;25.50;99.90;;;;;;5090160;28;20413;-79
2023/06/22 01:04:42;;;;;;;8.07;4.73;;;25.50;99.90;;;;;;5090744;28;20605;-79
2023/06/22 01:07:22;;;;;;;7.47;5.77;;;25.50;99.90;;;;;;5089188;28;20188;-79
2023/06/22 01:10:11;;;;;;;9.60;5.50;;;25.50;99.90;;;;;;5090723;28;20200;-80
2023/06/22 01:12:49;;;;;;;5.57;5.07;;;25.40;99.90;;;;;;5071911;28;20409;-79
2023/06/22 01:15:24;;;;;;;7.80;5.30;;;25.30;99.90;;;;;;5090478;28;20484;-79
2023/06/22 01:17:52;;;;;;;7.53;5.93;;;25.30;99.90;;;;;;5071842;28;20636;-80
2023/06/22 01:20:19;;;;;;;7.60;5.50;;;25.30;99.90;;;;;;5090406;28;20428;-79
2023/06/22 01:23:03;;;;;;;7.10;5.17;;;25.20;99.90;;;;;;5090135;28;20426;-79
2023/06/22 01:25:41;;;;;;;8.37;5.20;;;25.20;99.90;;;;;;5090499;28;20429;-79
2023/06/22 01:28:18;;;;;;;7.43;5.20;;;25.20;99.90;;;;;;5071271;28;20412;-79
2023/06/22 01:30:46;;;;;;;8.10;5.10;;;25.20;99.90;;;;;;5090318;28;20451;-79
2023/06/22 01:33:14;;;;;;;6.97;5.40;;;25.20;99.90;;;;;;5089879;28;20920;-79
2023/06/22 01:35:40;;;;;;;6.20;5.40;;;25.20;99.90;;;;;;5072145;28;21183;-79
2023/06/22 01:38:07;;;;;;;8.97;6.33;;;25.20;99.90;;;;;;5071077;28;20534;-79
2023/06/22 01:40:34;;;;;;;6.73;4.87;;;25.20;99.90;;;;;;5090258;28;20650;-79
2023/06/22 01:43:03;;;;;;;10.00;5.23;;;25.20;99.90;;;;;;5071495;28;20471;-79
2023/06/22 01:45:29;;;;;;;8.57;5.50;;;25.10;99.90;;;;;;5090183;28;20455;-79
2023/06/22 01:47:56;;;;;;;14.00;5.93;;;25.00;99.90;;;;;;5088870;28;20901;-79
2023/06/22 01:50:21;;;;;;;6.57;4.87;;;25.00;99.90;;;;;;5089573;28;20889;-80
2023/06/22 01:52:47;;;;;;;6.67;5.43;;;25.00;99.90;;;;;;5071219;28;20491;-79
2023/06/22 01:55:13;;;;;;;9.93;6.40;;;24.90;99.90;;;;;;5089485;28;20312;-79
2023/06/22 01:57:39;;;;;;;9.17;6.47;;;24.90;99.90;;;;;;5089403;28;20191;-80
2023/06/22 02:00:09;;;;;;;6.70;5.77;;;24.80;99.90;;;;;;5071323;28;20223;-80
2023/06/22 02:03:00;;;;;;;7.93;4.90;;;24.80;99.90;;;;;;5089186;28;20478;-79
2023/06/22 02:05:34;;;;;;;8.63;6.13;;;24.70;99.90;;;;;;5069927;28;20537;-79
2023/06/22 02:08:07;;;;;;;6.40;5.50;;;24.70;99.90;;;;;;5088697;28;20638;-80
2023/06/22 02:10:35;;;;;;;7.17;5.77;;;24.70;99.90;;;;;;5089383;28;20918;-79
2023/06/22 02:13:04;;;;;;;9.67;6.20;;;24.70;99.90;;;;;;5088846;28;20409;-79
2023/06/22 02:15:30;;;;;;;7.60;4.90;;;24.60;99.90;;;;;;5089422;28;20847;-79
2023/06/22 02:17:56;;;;;;;6.27;5.53;;;24.60;99.90;;;;;;5088797;28;20509;-80
2023/06/22 02:20:24;;;;;;;10.03;5.03;;;24.60;99.90;;;;;;5088959;28;20443;-80
2023/06/22 02:22:49;;;;;;;7.40;5.30;;;24.60;99.90;;;;;;5088853;28;20503;-79
2023/06/22 02:25:15;;;;;;;5.70;4.40;;;24.70;99.90;;;;;;5088860;28;20468;-80
2023/06/22 02:27:41;;;;;;;5.53;5.00;;;24.70;99.90;;;;;;5070707;28;20183;-80
2023/06/22 02:30:09;;;;;;;7.17;4.60;;;24.70;99.90;;;;;;5088690;28;20295;-79
2023/06/22 02:32:35;;;;;;;7.93;5.33;;;24.70;99.90;;;;;;5088779;28;20743;-80
2023/06/22 02:35:04;;;;;;;7.90;5.70;;;24.70;99.90;;;;;;5088683;28;20436;-80
2023/06/22 02:37:30;;;;;;;5.80;5.17;;;24.70;99.90;;;;;;5088312;28;20200;-79
2023/06/22 02:39:56;;;;;;;6.73;4.90;;;24.60;99.90;;;;;;5088980;28;20813;-79
2023/06/22 02:42:21;;;;;;;6.50;5.80;;;24.60;99.90;;;;;;5087952;28;20408;-79
2023/06/22 02:44:47;;;;;;;8.80;4.83;;;24.60;99.90;;;;;;5088328;28;20239;-79
2023/06/22 02:47:13;;;;;;;6.10;4.83;;;24.60;99.90;;;;;;5088050;28;20178;-79
2023/06/22 02:49:39;;;;;;;7.73;4.87;;;24.60;99.90;;;;;;5088822;28;20447;-80
2023/06/22 02:52:05;;;;;;;7.60;4.97;;;24.50;99.90;;;;;;5069684;28;20640;-80
2023/06/22 02:54:30;;;;;;;6.40;5.07;;;24.50;99.90;;;;;;5088475;28;20359;-80
2023/06/22 02:56:56;;;;;;;9.27;4.43;;;24.50;99.90;;;;;;5088115;28;20753;-80
2023/06/22 02:59:25;;;;;;;5.37;4.70;;;24.40;99.90;;;;;;5069434;28;20234;-79
2023/06/22 03:01:50;;;;;;;6.30;4.60;;;24.40;99.90;;;;;;5088113;28;20512;-80
2023/06/22 03:04:16;;;;;;;6.27;4.87;;;24.40;99.90;;;;;;5069719;28;20474;-79
2023/06/22 03:06:42;;;;;;;13.47;5.77;;;24.40;99.90;;;;;;5087634;28;20704;-80
2023/06/22 03:09:08;;;;;;;5.17;4.67;;;24.40;99.90;;;;;;5086944;28;20235;-80
2023/06/22 03:11:34;;;;;;;9.87;6.27;;;24.30;99.90;;;;;;5069771;28;20175;-79
2023/06/22 03:14:01;;;;;;;9.33;5.83;;;24.20;99.90;;;;;;5087590;28;20210;-80
2023/06/22 03:16:27;;;;;;;8.50;5.50;;;24.20;99.90;;;;;;5087892;28;21003;-79
2023/06/22 03:18:53;;;;;;;9.00;5.30;;;24.00;99.90;;;;;;5087862;28;20570;-79
2023/06/22 03:21:19;;;;;;;8.50;4.70;;;24.00;99.90;;;;;;5087596;28;20419;-79
2023/06/22 03:23:45;;;;;;;7.80;5.53;;;23.90;99.90;;;;;;5088107;28;20936;-79
2023/06/22 03:26:11;;;;;;;8.40;5.60;;;23.80;99.90;;;;;;5087496;28;20417;-79
2023/06/22 03:28:38;;;;;;;5.83;5.23;;;23.80;99.90;;;;;;5087930;28;20201;-79
2023/06/22 03:31:06;;;;;;;5.57;4.73;;;23.80;99.90;;;;;;5069574;28;20407;-79
2023/06/22 03:33:32;;;;;;;9.00;6.30;;;23.80;99.90;;;;;;5087777;28;20765;-79
2023/06/22 03:35:57;;;;;;;8.13;5.10;;;23.70;99.90;;;;;;5069729;28;20428;-79
2023/06/22 03:38:23;;;;;;;5.93;5.33;;;23.70;99.90;;;;;;5086636;28;20202;-79
2023/06/22 03:40:49;;;;;;;9.70;5.80;;;23.80;99.90;;;;;;5087674;28;20684;-79
2023/06/22 03:43:15;;;;;;;8.03;5.63;;;23.80;99.90;;;;;;5085274;28;20230;-79
2023/06/22 03:45:40;;;;;;;6.83;6.10;;;23.80;99.90;;;;;;5069021;28;20222;-79
2023/06/22 03:48:06;;;;;;;7.93;6.03;;;23.80;99.90;;;;;;5087033;28;20169;-79
2023/06/22 03:50:31;;;;;;;10.90;5.50;;;23.80;99.90;;;;;;5087634;28;20663;-79
2023/06/22 03:52:57;;;;;;;10.23;6.43;;;23.80;99.90;;;;;;5087206;28;20648;-79
2023/06/22 03:55:23;;;;;;;7.00;5.53;;;23.80;99.90;;;;;;5087305;28;20577;-79
2023/06/22 03:57:49;;;;;;;10.17;6.53;;;23.80;99.90;;;;;;5069109;28;20606;-79
2023/06/22 04:00:15;;;;;;;10.97;6.83;;;23.90;99.90;;;;;;5087645;28;20448;-79
2023/06/22 04:02:42;;;;;;;6.10;5.50;;;23.90;99.90;;;;;;5085549;28;20188;-79
2023/06/22 04:05:09;;;;;;;6.67;4.97;;;24.00;99.90;;;;;;5083087;28;20450;-79
2023/06/22 04:07:36;;;;;;;8.60;5.67;;;24.10;99.90;;;;;;5085188;28;20696;-79
2023/06/22 04:10:04;;;;;;;8.70;6.03;;;24.10;99.90;;;;;;5087684;28;20459;-80
2023/06/22 04:12:29;;;;;;;8.03;6.20;;;24.20;99.90;;;;;;5071738;28;20864;-79
2023/06/22 04:14:55;;;;;;;9.03;6.50;;;24.20;99.90;;;;;;5091352;28;20509;-79
2023/06/22 04:17:21;;;;;;;8.20;5.97;;;24.30;99.90;;;;;;5090770;28;20359;-79
2023/06/22 04:19:46;;;;;;;11.23;6.20;;;24.40;99.90;;;;;;5090162;28;20657;-79
2023/06/22 04:22:12;;;;;;;8.27;6.07;;;24.50;99.90;;;;;;5089812;28;20187;-79
2023/06/22 04:24:38;;;;;;;9.20;5.50;;;24.60;99.90;;;;;;5091205;28;20219;-79
2023/06/22 04:27:04;;;;;;;6.37;5.43;;;24.60;99.90;;;;;;5072490;28;20819;-80
2023/06/22 04:29:30;;;;;;;8.13;6.53;;;24.70;99.90;;;;;;5075061;28;20216;-79
2023/06/22 04:32:02;;;;;;;8.90;7.10;;;24.70;99.90;;;;;;5070198;28;20428;-79
2023/06/22 04:34:28;;;;;;;11.27;6.30;;;24.80;99.90;;;;;;5076666;28;20928;-79
2023/06/22 04:36:54;;;;;;;7.30;6.60;;;24.90;99.90;;;;;;5071373;28;20952;-79
2023/06/22 04:39:21;;;;;;;14.30;6.97;;;24.90;99.90;;;;;;5067952;28;20488;-79
2023/06/22 04:41:46;;;;;;;6.87;5.93;;;25.00;99.90;;;;;;5056676;28;20808;-78
2023/06/22 04:44:12;;;;;;;7.33;5.90;;;25.00;99.90;;;;;;5089822;28;20480;-79
2023/06/22 04:46:39;;;;;;;10.50;6.20;;;25.00;99.90;;;;;;5071866;28;20669;-79
2023/06/22 04:49:09;;;;;;;9.93;6.33;;;25.00;99.90;;;;;;5091069;28;20280;-81
2023/06/22 04:51:40;;;;;;;13.17;6.30;;;25.10;99.90;;;;;;5090360;28;20583;-80
2023/06/22 04:54:07;;;;;;;11.60;6.10;;;25.10;99.90;;;;;;5071692;28;20455;-80
2023/06/22 04:56:33;;;;;;;7.60;6.63;;;25.10;99.90;;;;;;5089288;28;20635;-80
2023/06/22 04:58:59;;;;;;;7.67;5.80;;;25.20;99.90;;;;;;5071231;28;20483;-80
2023/06/22 05:01:25;;;;;;;8.80;6.13;;;25.20;99.90;;;;;;5071699;28;20431;-80
2023/06/22 05:03:55;;;;;;;10.33;6.50;;;25.20;99.90;;;;;;5089000;28;20881;-80
2023/06/22 05:06:21;;;;;;;8.53;6.33;;;25.20;99.90;;;;;;5069926;28;20250;-80
2023/06/22 05:08:47;;;;;;;13.77;6.40;;;25.20;99.90;;;;;;5070472;28;20423;-81
2023/06/22 05:11:13;;;;;;;6.30;5.70;;;25.20;99.90;;;;;;5065876;28;20439;-81
2023/06/22 05:13:38;;;;;;;8.70;5.90;;;25.20;99.90;;;;;;5086444;28;20184;-80
2023/06/22 05:16:05;;;;;;;7.10;5.93;;;25.30;99.90;;;;;;5086962;28;20175;-81
2023/06/22 05:18:31;;;;;;;8.87;6.10;;;25.30;99.90;;;;;;5063977;28;20215;-80
2023/06/22 05:20:59;;;;;;;10.00;5.80;;;25.30;99.90;;;;;;5061803;28;20428;-80
2023/06/22 05:23:24;;;;;;;10.60;6.20;;;25.40;99.90;;;;;;5069005;28;20441;-79
2023/06/22 05:25:51;;;;;;;12.93;6.13;;;25.40;99.90;;;;;;5086716;28;20483;-81
2023/06/22 05:28:17;;;;;;;11.57;6.03;;;25.40;99.90;;;;;;5085875;28;20543;-81
2023/06/22 05:30:42;;;;;;;6.57;5.87;;;25.50;99.90;;;;;;5085286;28;20472;-80
2023/06/22 05:33:08;;;;;;;13.73;7.00;;;25.50;99.90;;;;;;5066354;28;20192;-80
2023/06/22 05:35:34;;;;;;;7.77;6.20;;;25.50;99.90;;;;;;5087563;28;20488;-80
2023/06/22 05:37:59;;;;;;;10.57;5.77;;;25.50;99.90;;;;;;5087555;28;20247;-80
2023/06/22 05:40:25;;;;;;;9.00;6.10;;;25.50;99.90;;;;;;5087364;28;20728;-80
2023/06/22 05:42:51;;;;;;;7.90;5.90;;;25.50;99.90;;;;;;5069432;28;20208;-80
2023/06/22 05:45:16;;;;;;;8.77;6.20;;;25.60;99.90;;;;;;5069796;28;20466;-80
2023/06/22 05:47:42;;;;;;;10.10;6.17;;;25.60;99.90;;;;;;5084565;28;20241;-80
2023/06/22 05:50:08;;;;;;;6.50;5.47;;;25.70;99.90;;;;;;5081479;28;20556;-80
2023/06/22 05:52:34;;;;;;;8.90;5.50;;;25.70;99.90;;;;;;5068694;28;20183;-80
2023/06/22 05:55:02;;;;;;;10.83;5.97;;;25.80;99.90;;;;;;5086718;28;20858;-80
2023/06/22 05:57:27;;;;;;;10.60;6.20;;;25.80;99.90;;;;;;5070096;28;20456;-80
2023/06/22 05:59:53;;;;;;;5.93;5.30;;;25.80;99.90;;;;;;5068900;28;20524;-81
2023/06/22 06:02:19;;;;;;;9.27;6.50;;;25.80;99.90;;;;;;5063564;28;20187;-80
2023/06/22 06:04:45;;;;;;;13.30;6.10;;;25.90;99.90;;;;;;5069207;28;20906;-80
2023/06/22 06:07:11;;;;;;;7.63;5.93;;;26.00;99.90;;;;;;5068201;28;20508;-80
2023/06/22 06:09:36;;;;;;;6.83;6.20;;;26.00;99.90;;;;;;5085404;28;20205;-81
2023/06/22 06:12:03;;;;;;;7.73;6.83;;;26.10;99.90;;;;;;5085443;28;20185;-80
2023/06/22 06:14:29;;;;;;;8.10;6.50;;;26.10;99.90;;;;;;5086857;28;20208;-80
2023/06/22 06:16:54;;;;;;;9.33;5.80;;;26.20;99.90;;;;;;5086997;28;20405;-80
2023/06/22 06:19:20;;;;;;;10.50;6.47;;;26.20;99.90;;;;;;5086997;28;20216;-80
2023/06/22 06:21:46;;;;;;;10.50;6.20;;;26.30;99.90;;;;;;5067759;28;20228;-80
2023/06/22 06:24:12;;;;;;;13.93;6.37;;;26.40;99.90;;;;;;5059521;28;20201;-81
2023/06/22 06:26:37;;;;;;;10.77;6.80;;;26.40;99.90;;;;;;5062493;28;20180;-81
2023/06/22 06:29:03;;;;;;;18.77;9.53;;;26.40;99.90;;;;;;5082237;28;20996;-81
2023/06/22 06:31:29;;;;;;;8.07;7.33;;;26.40;99.90;;;;;;5079628;28;20488;-81
2023/06/22 06:33:55;;;;;;;8.93;6.40;;;26.50;99.90;;;;;;5062489;28;20212;-81
2023/06/22 06:36:20;;;;;;;11.73;7.00;;;26.60;99.90;;;;;;5082055;28;20910;-80
2023/06/22 06:38:47;;;;;;;8.30;7.40;;;26.60;99.90;;;;;;5081805;28;21070;-81
2023/06/22 06:41:16;;;;;;;11.10;6.90;;;26.70;99.90;;;;;;5064415;28;20177;-80
2023/06/22 06:43:43;;;;;;;7.07;6.30;;;26.70;99.90;;;;;;5076134;28;20464;-81
2023/06/22 06:46:09;;;;;;;11.30;7.07;;;26.90;99.90;;;;;;5044765;28;20421;-80
2023/06/22 06:48:35;;;;;;;8.57;7.63;;;26.90;99.90;;;;;;5077592;28;20421;-80
2023/06/22 06:51:00;;;;;;;9.80;8.10;;;27.00;99.90;;;;;;5080585;28;20428;-81
2023/06/22 06:53:26;;;;;;;9.30;8.40;;;27.10;99.90;;;;;;5083437;28;20707;-80
2023/06/22 06:55:52;;;;;;;9.03;7.93;;;27.10;99.90;;;;;;5065596;28;20700;-80
2023/06/22 06:58:18;;;;;;;10.43;7.60;;;27.20;99.90;;;;;;5064752;28;20464;-81
2023/06/22 07:00:44;;;;;;;12.03;9.20;;;27.20;99.90;;;;;;5066677;28;20221;-81
2023/06/22 07:03:09;;;;;;;10.97;8.03;;;27.30;99.90;;;;;;5064139;28;20271;-80
2023/06/22 07:05:35;;;;;;;8.97;7.57;;;27.40;99.90;;;;;;5068394;28;20398;-80
2023/06/22 07:08:01;;;;;;;10.27;7.83;;;27.40;99.90;;;;;;5082441;28;20190;-81
2023/06/22 07:10:28;;;;;;;11.77;8.20;;;27.50;99.90;;;;;;5082520;28;20243;-80
2023/06/22 07:12:53;;;;;;;13.20;8.97;;;27.70;99.90;;;;;;5082290;28;20428;-81
2023/06/22 07:15:19;;;;;;;8.87;7.97;;;27.70;99.90;;;;;;5082640;28;20457;-80
2023/06/22 07:17:44;;;;;;;9.87;8.20;;;27.70;99.90;;;;;;5065687;28;20176;-80
2023/06/22 07:20:11;;;;;;;9.23;7.60;;;27.80;99.90;;;;;;5056116;28;20208;-80
2023/06/22 07:22:42;;;;;;;9.43;8.27;;;27.90;99.90;;;;;;5063306;28;20547;-80
2023/06/22 07:25:09;;;;;;;12.63;7.67;;;27.90;99.90;;;;;;5077537;28;20471;-80
2023/06/22 07:27:42;;;;;;;12.20;9.10;;;28.00;99.90;;;;;;5082712;28;20494;-80
2023/06/22 07:30:09;;;;;;;10.93;8.67;;;28.10;99.90;;;;;;5085486;28;20446;-80
2023/06/22 07:32:35;;;;;;;10.70;8.97;;;28.20;99.90;;;;;;5068737;28;20795;-80
2023/06/22 07:35:02;;;;;;;11.10;8.40;;;28.30;99.90;;;;;;5065926;28;20463;-81
2023/06/22 07:37:28;;;;;;;11.63;9.17;;;28.30;99.90;;;;;;5084611;28;20451;-81
2023/06/22 07:39:58;;;;;;;11.83;8.60;;;28.40;99.90;;;;;;5085281;28;20487;-80
2023/06/22 07:42:27;;;;;;;13.23;10.77;;;28.50;99.90;;;;;;5066438;28;20434;-81
2023/06/22 07:44:54;;;;;;;10.60;9.10;;;28.60;99.90;;;;;;5082685;28;20860;-80
2023/06/22 07:47:19;;;;;;;14.43;9.50;;;28.60;99.90;;;;;;5066892;28;20492;-80
2023/06/22 07:49:48;;;;;;;10.53;9.40;;;28.70;99.90;;;;;;5085592;28;20463;-80
2023/06/22 07:52:14;;;;;;;12.50;9.40;;;28.80;99.90;;;;;;5086086;28;20187;-81
2023/06/22 07:54:39;;;;;;;10.60;9.07;;;28.90;99.90;;;;;;5087067;28;21054;-81
2023/06/22 07:57:05;;;;;;;11.97;9.60;;;28.90;99.90;;;;;;5067569;28;20187;-80
2023/06/22 07:59:31;;;;;;;14.90;10.33;;;29.00;99.90;;;;;;5060576;28;20532;-81
2023/06/22 08:01:57;;;;;;;10.10;9.07;;;29.00;99.90;;;;;;5084309;28;20426;-81
2023/06/22 08:04:23;;;;;;;11.33;9.37;;;29.10;99.90;;;;;;5086891;28;20219;-81
2023/06/22 08:06:49;;;;;;;9.40;8.50;;;29.20;99.90;;;;;;5067665;28;20497;-81
2023/06/22 08:09:15;;;;;;;11.03;9.90;;;29.20;99.90;;;;;;5083932;28;20207;-82
2023/06/22 08:11:40;;;;;;;12.47;10.23;;;29.30;99.90;;;;;;5065956;28;20188;-80
2023/06/22 08:14:06;;;;;;;10.43;9.57;;;29.40;99.90;;;;;;5065258;28;20206;-80
2023/06/22 08:16:32;;;;;;;10.83;9.90;;;29.40;99.90;;;;;;5065340;28;20890;-79
2023/06/22 08:18:57;;;;;;;9.33;8.43;;;29.40;99.90;;;;;;5055842;28;20703;-80
2023/06/22 08:21:23;;;;;;;17.60;11.17;;;29.50;99.90;;;;;;5080833;28;20671;-80
2023/06/22 08:23:49;;;;;;;10.70;9.53;;;29.60;99.90;;;;;;5080873;28;20576;-81
2023/06/22 08:26:15;;;;;;;9.80;8.80;;;29.70;99.90;;;;;;5064468;28;20178;-81
2023/06/22 08:28:40;;;;;;;8.83;7.93;;;29.70;99.90;;;;;;5080971;28;20566;-81
2023/06/22 08:31:06;;;;;;;8.77;7.10;;;29.70;99.90;;;;;;5055607;28;20419;-80
2023/06/22 08:33:32;;;;;;;11.10;8.77;;;29.80;99.90;;;;;;5076485;28;20173;-80
2023/06/22 08:35:59;;;;;;;14.23;7.30;;;29.80;99.90;;;;;;5080352;28;20564;-80
2023/06/22 08:38:25;;;;;;;9.07;7.77;;;29.90;99.90;;;;;;5072846;28;20794;-80
2023/06/22 08:40:51;;;;;;;10.67;8.00;;;29.90;99.90;;;;;;5062542;28;20439;-80
2023/06/22 08:43:16;;;;;;;11.47;7.70;;;29.90;99.90;;;;;;5080732;28;20246;-80
2023/06/22 08:45:42;;;;;;;9.80;7.70;;;29.90;99.90;;;;;;5081494;28;20208;-80
2023/06/22 08:48:07;;;;;;;11.03;8.30;;;30.00;99.90;;;;;;5082326;28;20195;-80
2023/06/22 08:50:33;;;;;;;13.20;8.40;;;30.00;99.90;;;;;;5081263;28;20491;-80
2023/06/22 08:52:59;;;;;;;9.10;8.00;;;30.00;99.90;;;;;;5079275;28;20191;-80
2023/06/22 08:55:24;;;;;;;9.03;7.70;;;30.10;99.90;;;;;;5082467;28;20207;-80
2023/06/22 08:57:50;;;;;;;10.60;7.80;;;30.10;99.90;;;;;;5068724;28;20232;-81
2023/06/22 09:00:18;;;;;;;11.70;7.67;;;30.10;99.90;;;;;;5073015;28;20201;-80
2023/06/22 09:02:45;;;;;;;10.27;8.40;;;30.10;99.90;;;;;;5079173;28;20424;-81
2023/06/22 09:05:10;;;;;;;15.27;10.10;;;30.10;99.90;;;;;;5086625;28;20445;-80
2023/06/22 09:07:36;;;;;;;9.40;8.50;;;30.10;99.90;;;;;;5087403;28;20419;-80
2023/06/22 09:10:04;;;;;;;12.03;9.67;;;30.20;99.90;;;;;;5067944;28;20514;-79
2023/06/22 09:12:30;;;;;;;11.17;8.83;;;30.20;99.90;;;;;;5060076;28;20186;-80
2023/06/22 09:14:56;;;;;;;9.70;8.53;;;30.20;99.90;;;;;;5085378;28;20565;-81
2023/06/22 09:17:22;;;;;;;10.27;7.83;;;30.30;99.90;;;;;;5067995;28;20409;-80
2023/06/22 09:19:48;;;;;;;12.27;9.30;;;30.40;99.90;;;;;;5066068;28;21006;-81
2023/06/22 09:22:14;;;;;;;9.60;8.50;;;30.40;99.90;;;;;;5065341;28;20416;-80
2023/06/22 09:24:40;;;;;;;11.20;9.90;;;30.40;99.90;;;;;;5084165;28;20196;-80
2023/06/22 09:27:05;;;;;;;10.80;9.70;;;30.50;99.90;;;;;;5083924;28;20587;-81
2023/06/22 09:29:33;;;;;;;14.20;11.17;;;30.50;99.90;;;;;;5065712;28;20632;-80
2023/06/22 09:32:00;;;;;;;10.83;9.83;;;30.50;99.90;;;;;;5083242;28;20309;-81
2023/06/22 09:34:26;;;;;;;13.13;11.03;;;30.60;99.90;;;;;;5084812;28;20449;-80
2023/06/22 09:36:51;;;;;;;11.87;10.77;;;30.60;99.90;;;;;;5084653;28;20420;-80
2023/06/22 09:39:18;;;;;;;16.00;9.87;;;30.60;99.90;;;;;;5078334;28;20252;-80
2023/06/22 09:41:44;;;;;;;11.03;9.60;;;30.80;99.90;;;;;;5059836;28;20183;-80
2023/06/22 09:44:09;;;;;;;15.93;10.40;;;30.80;99.90;;;;;;5066122;28;20485;-80
2023/06/22 09:46:35;;;;;;;11.20;10.07;;;30.90;99.90;;;;;;5072440;28;20181;-80
2023/06/22 09:49:01;;;;;;;11.13;10.13;;;31.00;99.90;;;;;;5064214;28;20292;-81
2023/06/22 09:51:27;;;;;;;11.57;10.67;;;31.10;99.90;;;;;;5080683;28;20835;-80
2023/06/22 09:53:55;;;;;;;12.60;11.40;;;31.20;99.90;;;;;;5067815;28;20270;-81
2023/06/22 09:56:22;;;;;;;13.10;11.40;;;31.20;99.90;;;;;;5064477;28;20185;-79
2023/06/22 09:58:50;;;;;;;12.87;11.50;;;31.30;99.90;;;;;;5063411;28;20499;-80
2023/06/22 10:01:15;;;;;;;12.83;10.90;;;31.40;99.90;;;;;;5075881;28;20424;-80
2023/06/22 10:03:41;;;;;;;12.30;11.10;;;31.40;99.90;;;;;;5068347;28;20941;-81
2023/06/22 10:06:08;;;;;;;13.50;10.87;;;31.40;99.90;;;;;;5072249;28;20199;-80
2023/06/22 10:08:34;;;;;;;12.20;11.00;;;31.50;99.90;;;;;;5064785;28;20181;-80
2023/06/22 10:11:00;;;;;;;12.77;11.57;;;31.50;99.90;;;;;;5061566;28;20723;-80
2023/06/22 10:13:25;;;;;;;12.00;10.90;;;31.60;99.90;;;;;;5044309;28;20822;-81
2023/06/22 10:15:52;;;;;;;11.73;10.63;;;31.70;99.90;;;;;;5063571;28;20185;-80
2023/06/22 10:18:21;;;;;;;12.30;10.80;;;31.70;99.90;;;;;;5062542;28;20693;-81
2023/06/22 10:20:53;;;;;;;12.57;11.33;;;31.80;99.90;;;;;;5046734;28;20795;-80
2023/06/22 10:23:22;;;;;;;13.63;12.30;;;31.80;99.90;;;;;;5058954;28;20402;-81
2023/06/22 10:25:48;;;;;;;16.00;12.10;;;31.80;99.90;;;;;;5065563;28;20539;-80
2023/06/22 10:28:13;;;;;;;14.10;12.70;;;31.80;99.90;;;;;;5065838;28;20437;-80
2023/06/22 10:30:41;;;;;;;13.63;12.33;;;31.80;99.90;;;;;;5058838;28;20685;-80
2023/06/22 10:33:07;;;;;;;13.53;12.30;;;31.80;99.90;;;;;;5057223;28;20181;-80
2023/06/22 10:35:33;;;;;;;12.83;11.73;;;31.90;99.90;;;;;;5057142;28;20445;-80
2023/06/22 10:37:59;;;;;;;14.10;12.70;;;31.90;99.90;;;;;;5059438;28;20456;-86
2023/06/22 10:40:25;;;;;;;14.90;13.63;;;31.90;99.90;;;;;;5074644;28;20197;-84
2023/06/22 10:42:51;;;;;;;17.27;15.53;;;31.90;99.90;;;;;;5058981;28;20472;-88
2023/06/22 10:45:17;;;;;;;14.90;13.60;;;31.90;99.90;;;;;;5080593;28;20220;-80
2023/06/22 10:47:42;;;;;;;17.43;15.67;;;31.90;99.90;;;;;;5083402;28;20439;-80
2023/06/22 10:50:08;;;;;;;16.67;15.00;;;31.90;99.90;;;;;;5084501;28;20201;-79
2023/06/22 10:52:34;;;;;;;16.10;14.60;;;31.90;99.90;;;;;;5086169;28;20187;-80
2023/06/22 10:55:00;;;;;;;14.40;13.20;;;31.90;99.90;;;;;;5080295;28;20201;-87
2023/06/22 10:57:25;;;;;;;14.40;13.00;;;32.00;99.90;;;;;;5057254;28;20885;-87
2023/06/22 10:59:51;;;;;;;14.83;13.53;;;32.00;99.90;;;;;;5054682;28;20597;-78
2023/06/22 11:02:17;;;;;;;14.60;13.20;;;32.10;99.90;;;;;;5043607;28;20196;-80
2023/06/22 11:04:42;;;;;;;14.77;13.13;;;32.20;99.90;;;;;;5048666;28;20350;-80
2023/06/22 11:07:09;;;;;;;16.30;14.67;;;32.20;99.90;;;;;;5080845;28;20184;-85
2023/06/22 11:09:34;;;;;;;15.90;14.40;;;32.40;99.90;;;;;;5064206;28;20571;-88
2023/06/22 11:12:00;;;;;;;15.60;14.20;;;32.40;99.90;;;;;;5080419;28;20750;-86
2023/06/22 11:14:26;;;;;;;15.97;14.30;;;32.40;99.90;;;;;;5083745;28;20267;-88
2023/06/22 11:16:51;;;;;;;16.23;14.63;;;32.50;99.90;;;;;;5065544;28;20173;-85
2023/06/22 11:19:18;;;;;;;15.40;13.90;;;32.50;99.90;;;;;;5064708;28;20701;-90
2023/06/22 11:21:43;;;;;;;23.27;15.60;;;32.60;99.90;;;;;;5065400;28;20609;-87
2023/06/22 11:24:09;;;;;;;16.80;15.20;;;32.60;99.90;;;;;;5084561;28;20595;-80
2023/06/22 11:26:35;;;;;;;17.43;15.67;;;32.60;99.90;;;;;;5085507;28;20645;-81
2023/06/22 11:29:04;;;;;;;16.10;14.50;;;32.60;99.90;;;;;;5085642;28;20208;-79
2023/06/22 11:31:31;;;;;;;14.73;13.53;;;32.70;99.90;;;;;;5083026;28;20583;-79
2023/06/22 11:33:57;;;;;;;15.97;14.37;;;32.80;99.90;;;;;;5082636;28;20465;-91
2023/06/22 11:36:23;;;;;;;16.33;14.73;;;32.80;99.90;;;;;;5081898;28;20455;-81
2023/06/22 11:38:49;;;;;;;15.57;14.07;;;32.80;99.90;;;;;;5057341;28;20220;-87
2023/06/22 11:41:14;;;;;;;17.20;15.60;;;32.80;99.90;;;;;;5059247;28;20174;-86
2023/06/22 11:43:40;;;;;;;16.80;15.20;;;32.90;99.90;;;;;;5058552;28;20236;-85
2023/06/22 11:46:06;;;;;;;16.53;14.90;;;32.90;99.90;;;;;;5059648;28;20203;-80
2023/06/22 11:48:32;;;;;;;16.37;14.83;;;33.00;99.90;;;;;;5082512;28;20196;-86
2023/06/22 11:50:58;;;;;;;16.03;14.60;;;33.00;99.90;;;;;;5066982;28;20628;-86
2023/06/22 11:53:28;;;;;;;16.70;15.13;;;32.90;99.90;;;;;;5085134;28;20642;-80
2023/06/22 11:55:55;;;;;;;17.20;15.27;;;33.00;99.90;;;;;;5064569;28;20444;-85
2023/06/22 11:58:20;;;;;;;18.83;17.23;;;33.00;99.90;;;;;;5065320;28;20860;-86
2023/06/22 12:00:47;;;;;;;18.20;16.43;;;33.10;99.90;;;;;;5074167;28;20487;-78
2023/06/22 12:03:14;;;;;;;18.83;16.80;;;33.20;99.90;;;;;;5062458;28;20282;-80
2023/06/22 12:05:40;;;;;;;16.63;15.13;;;33.20;99.90;;;;;;5065025;28;20464;-78
2023/06/22 12:08:06;;;;;;;16.77;15.27;;;33.30;99.90;;;;;;5064095;28;20432;-86
2023/06/22 12:10:32;;;;;;;16.70;15.10;;;33.30;99.90;;;;;;5064738;28;20821;-78
2023/06/22 12:12:59;;;;;;;17.33;15.70;;;33.30;99.90;;;;;;5063136;28;20375;-82
2023/06/22 12:15:26;;;;;;;16.80;15.17;;;33.20;99.90;;;;;;5080472;28;20336;-81
2023/06/22 12:17:52;;;;;;;23.13;16.10;;;33.20;99.90;;;;;;5078589;28;20451;-81
2023/06/22 12:20:18;;;;;;;17.50;16.07;;;33.20;99.90;;;;;;5081732;28;20556;-81
2023/06/22 12:22:44;;;;;;;18.97;17.37;;;33.20;99.90;;;;;;5078702;28;20212;-81
2023/06/22 12:25:10;;;;;;;17.30;15.70;;;33.30;99.90;;;;;;5060691;28;20554;-82
2023/06/22 12:27:36;;;;;;;18.07;16.10;;;33.30;99.90;;;;;;5053706;28;20426;-81
2023/06/22 12:30:06;;;;;;;18.23;16.73;;;33.30;99.90;;;;;;5071608;28;20216;-82
2023/06/22 12:32:31;;;;;;;19.13;17.20;;;33.40;99.90;;;;;;5076984;28;20436;-82
2023/06/22 12:34:57;;;;;;;18.33;16.70;;;33.40;99.90;;;;;;5064238;28;20488;-81